sensor_id;sensor_type;location;lat;lon;timestamp;P1;durP1;ratioP1;P2;durP2;ratioP2
8538;SDS011;4307;53.868;11.680;2023-06-24T00:00:27;6.80;;;6.17;;
8538;SDS011;4307;53.868;11.680;2023-06-24T00:02:55;11.63;;;5.93;;
8538;SDS011;4307;53.868;11.680;2023-06-24T00:05:28;9.37;;;5.63;;
8538;SDS011;4307;53.868;11.680;2023-06-24T00:07:56;6.73;;;5.80;;
8538;SDS011;4307;53.868;11.680;2023-06-24T00:10:27;6.23;;;5.60;;
8538;SDS011;4307;53.868;11.680;2023-06-24T00:12:54;5.97;;;5.37;;
8538;SDS011;4307;53.868;11.680;2023-06-24T00:15:21;10.07;;;5.93;;
8538;SDS011;4307;53.868;11.680;2023-06-24T00:17:48;6.77;;;5.33;;
8538;SDS011;4307;53.868;11.680;2023-06-24T00:20:16;7.77;;;5.67;;
8538;SDS011;4307;53.868;11.680;2023-06-24T00:22:47;7.33;;;5.80;;
8538;SDS011;4307;53.868;11.680;2023-06-24T00:25:15;9.37;;;5.70;;
8538;SDS011;4307;53.868;11.680;2023-06-24T00:27:43;9.23;;;5.33;;
8538;SDS011;4307;53.868;11.680;2023-06-24T00:30:11;9.07;;;5.43;;
8538;SDS011;4307;53.868;11.680;2023-06-24T00:32:40;7.37;;;5.43;;
8538;SDS011;4307;53.868;11.680;2023-06-24T00:35:08;6.20;;;5.60;;
8538;SDS011;4307;53.868;11.680;2023-06-24T00:37:37;7.50;;;5.17;;
8538;SDS011;4307;53.868;11.680;2023-06-24T00:40:06;6.33;;;4.90;;
8538;SDS011;4307;53.868;11.680;2023-06-24T00:42:36;9.73;;;5.20;;
8538;SDS011;4307;53.868;11.680;2023-06-24T00:45:03;5.87;;;5.27;;
8538;SDS011;4307;53.868;11.680;2023-06-24T00:47:31;7.07;;;5.10;;
8538;SDS011;4307;53.868;11.680;2023-06-24T00:49:58;5.93;;;5.10;;
8538;SDS011;4307;53.868;11.680;2023-06-24T00:52:25;5.23;;;4.70;;
8538;SDS011;4307;53.868;11.680;2023-06-24T00:54:51;5.40;;;4.60;;
8538;SDS011;4307;53.868;11.680;2023-06-24T00:57:20;7.00;;;5.10;;
8538;SDS011;4307;53.868;11.680;2023-06-24T00:59:49;5.63;;;4.87;;
8538;SDS011;4307;53.868;11.680;2023-06-24T01:02:18;8.30;;;4.67;;
8538;SDS011;4307;53.868;11.680;2023-06-24T01:04:46;6.43;;;4.37;;
8538;SDS011;4307;53.868;11.680;2023-06-24T01:07:16;5.90;;;4.60;;
8538;SDS011;4307;53.868;11.680;2023-06-24T01:09:43;5.63;;;4.80;;
8538;SDS011;4307;53.868;11.680;2023-06-24T01:12:10;5.10;;;4.33;;
8538;SDS011;4307;53.868;11.680;2023-06-24T01:14:38;8.07;;;4.60;;
8538;SDS011;4307;53.868;11.680;2023-06-24T01:17:05;5.80;;;4.90;;
8538;SDS011;4307;53.868;11.680;2023-06-24T01:19:44;6.70;;;4.63;;
8538;SDS011;4307;53.868;11.680;2023-06-24T01:22:31;6.90;;;4.67;;
8538;SDS011;4307;53.868;11.680;2023-06-24T01:25:28;5.80;;;4.70;;
8538;SDS011;4307;53.868;11.680;2023-06-24T01:28:19;6.47;;;4.70;;
8538;SDS011;4307;53.868;11.680;2023-06-24T01:31:03;6.40;;;4.60;;
8538;SDS011;4307;53.868;11.680;2023-06-24T01:33:50;7.97;;;4.83;;
8538;SDS011;4307;53.868;11.680;2023-06-24T01:36:20;7.70;;;5.03;;
8538;SDS011;4307;53.868;11.680;2023-06-24T01:38:51;5.70;;;5.10;;
8538;SDS011;4307;53.868;11.680;2023-06-24T01:41:22;12.33;;;5.50;;
8538;SDS011;4307;53.868;11.680;2023-06-24T01:43:52;9.53;;;5.67;;
8538;SDS011;4307;53.868;11.680;2023-06-24T01:46:22;5.90;;;5.07;;
8538;SDS011;4307;53.868;11.680;2023-06-24T01:48:52;10.73;;;5.10;;
8538;SDS011;4307;53.868;11.680;2023-06-24T01:51:24;6.57;;;5.57;;
8538;SDS011;4307;53.868;11.680;2023-06-24T01:53:54;6.10;;;5.50;;
8538;SDS011;4307;53.868;11.680;2023-06-24T01:56:26;7.67;;;5.47;;
8538;SDS011;4307;53.868;11.680;2023-06-24T01:58:55;7.07;;;6.33;;
8538;SDS011;4307;53.868;11.680;2023-06-24T02:01:26;7.03;;;5.60;;
8538;SDS011;4307;53.868;11.680;2023-06-24T02:03:53;9.03;;;5.87;;
8538;SDS011;4307;53.868;11.680;2023-06-24T02:06:21;8.20;;;5.87;;
8538;SDS011;4307;53.868;11.680;2023-06-24T02:08:50;10.47;;;6.40;;
8538;SDS011;4307;53.868;11.680;2023-06-24T02:11:18;7.37;;;6.27;;
8538;SDS011;4307;53.868;11.680;2023-06-24T02:13:47;10.60;;;6.57;;
8538;SDS011;4307;53.868;11.680;2023-06-24T02:16:14;7.87;;;6.00;;
8538;SDS011;4307;53.868;11.680;2023-06-24T02:18:44;8.10;;;6.00;;
8538;SDS011;4307;53.868;11.680;2023-06-24T02:21:13;11.70;;;7.10;;
8538;SDS011;4307;53.868;11.680;2023-06-24T02:23:41;10.63;;;6.50;;
8538;SDS011;4307;53.868;11.680;2023-06-24T02:26:08;9.57;;;6.63;;
8538;SDS011;4307;53.868;11.680;2023-06-24T02:28:37;8.47;;;6.37;;
8538;SDS011;4307;53.868;11.680;2023-06-24T02:31:04;10.20;;;6.73;;
8538;SDS011;4307;53.868;11.680;2023-06-24T02:33:34;8.67;;;6.80;;
8538;SDS011;4307;53.868;11.680;2023-06-24T02:36:02;8.77;;;7.10;;
8538;SDS011;4307;53.868;11.680;2023-06-24T02:38:29;8.70;;;6.40;;
8538;SDS011;4307;53.868;11.680;2023-06-24T02:40:56;10.37;;;7.30;;
8538;SDS011;4307;53.868;11.680;2023-06-24T02:43:23;14.50;;;6.93;;
8538;SDS011;4307;53.868;11.680;2023-06-24T02:45:50;11.40;;;7.13;;
8538;SDS011;4307;53.868;11.680;2023-06-24T02:48:17;8.03;;;6.50;;
8538;SDS011;4307;53.868;11.680;2023-06-24T02:50:45;9.40;;;6.80;;
8538;SDS011;4307;53.868;11.680;2023-06-24T02:53:14;10.67;;;6.80;;
8538;SDS011;4307;53.868;11.680;2023-06-24T02:55:42;10.47;;;6.97;;
8538;SDS011;4307;53.868;11.680;2023-06-24T02:58:10;10.23;;;6.87;;
8538;SDS011;4307;53.868;11.680;2023-06-24T03:00:36;11.07;;;7.23;;
8538;SDS011;4307;53.868;11.680;2023-06-24T03:03:04;10.13;;;7.20;;
8538;SDS011;4307;53.868;11.680;2023-06-24T03:05:32;12.37;;;7.90;;
8538;SDS011;4307;53.868;11.680;2023-06-24T03:07:59;12.20;;;7.63;;
8538;SDS011;4307;53.868;11.680;2023-06-24T03:10:30;10.57;;;8.07;;
8538;SDS011;4307;53.868;11.680;2023-06-24T03:12:56;11.03;;;6.80;;
8538;SDS011;4307;53.868;11.680;2023-06-24T03:15:23;9.63;;;7.90;;
8538;SDS011;4307;53.868;11.680;2023-06-24T03:17:50;13.80;;;7.30;;
8538;SDS011;4307;53.868;11.680;2023-06-24T03:20:17;9.73;;;7.03;;
8538;SDS011;4307;53.868;11.680;2023-06-24T03:22:45;10.67;;;7.27;;
8538;SDS011;4307;53.868;11.680;2023-06-24T03:25:11;10.63;;;7.27;;
8538;SDS011;4307;53.868;11.680;2023-06-24T03:27:39;8.90;;;6.67;;
8538;SDS011;4307;53.868;11.680;2023-06-24T03:30:06;11.67;;;6.83;;
8538;SDS011;4307;53.868;11.680;2023-06-24T03:32:34;7.90;;;7.10;;
8538;SDS011;4307;53.868;11.680;2023-06-24T03:35:02;11.77;;;7.33;;
8538;SDS011;4307;53.868;11.680;2023-06-24T03:37:29;9.07;;;6.90;;
8538;SDS011;4307;53.868;11.680;2023-06-24T03:39:56;9.30;;;6.83;;
8538;SDS011;4307;53.868;11.680;2023-06-24T03:42:22;8.43;;;6.97;;
8538;SDS011;4307;53.868;11.680;2023-06-24T03:44:50;19.93;;;7.27;;
8538;SDS011;4307;53.868;11.680;2023-06-24T03:47:17;10.23;;;6.17;;
8538;SDS011;4307;53.868;11.680;2023-06-24T03:49:44;8.00;;;6.87;;
8538;SDS011;4307;53.868;11.680;2023-06-24T03:52:11;11.77;;;7.13;;
8538;SDS011;4307;53.868;11.680;2023-06-24T03:54:37;12.73;;;6.47;;
8538;SDS011;4307;53.868;11.680;2023-06-24T03:57:05;9.17;;;6.60;;
8538;SDS011;4307;53.868;11.680;2023-06-24T03:59:32;7.70;;;6.53;;
8538;SDS011;4307;53.868;11.680;2023-06-24T04:02:00;7.80;;;5.73;;
8538;SDS011;4307;53.868;11.680;2023-06-24T04:04:27;9.83;;;5.93;;
8538;SDS011;4307;53.868;11.680;2023-06-24T04:06:54;6.43;;;5.80;;
8538;SDS011;4307;53.868;11.680;2023-06-24T04:09:20;10.03;;;6.13;;
8538;SDS011;4307;53.868;11.680;2023-06-24T04:11:48;8.07;;;6.40;;
8538;SDS011;4307;53.868;11.680;2023-06-24T04:14:15;8.00;;;6.40;;
8538;SDS011;4307;53.868;11.680;2023-06-24T04:16:42;10.13;;;7.30;;
8538;SDS011;4307;53.868;11.680;2023-06-24T04:19:10;9.07;;;6.60;;
8538;SDS011;4307;53.868;11.680;2023-06-24T04:21:37;10.73;;;7.63;;
8538;SDS011;4307;53.868;11.680;2023-06-24T04:24:03;10.37;;;7.60;;
8538;SDS011;4307;53.868;11.680;2023-06-24T04:26:30;10.93;;;7.87;;
8538;SDS011;4307;53.868;11.680;2023-06-24T04:28:57;13.73;;;8.50;;
8538;SDS011;4307;53.868;11.680;2023-06-24T04:31:24;10.23;;;8.17;;
8538;SDS011;4307;53.868;11.680;2023-06-24T04:33:51;10.57;;;8.37;;
8538;SDS011;4307;53.868;11.680;2023-06-24T04:36:19;10.40;;;7.53;;
8538;SDS011;4307;53.868;11.680;2023-06-24T04:38:46;12.17;;;7.50;;
8538;SDS011;4307;53.868;11.680;2023-06-24T04:41:12;9.30;;;6.60;;
8538;SDS011;4307;53.868;11.680;2023-06-24T04:43:39;9.63;;;7.07;;
8538;SDS011;4307;53.868;11.680;2023-06-24T04:46:06;9.17;;;6.77;;
8538;SDS011;4307;53.868;11.680;2023-06-24T04:48:33;9.63;;;7.47;;
8538;SDS011;4307;53.868;11.680;2023-06-24T04:51:00;11.10;;;7.10;;
8538;SDS011;4307;53.868;11.680;2023-06-24T04:53:28;7.50;;;6.40;;
8538;SDS011;4307;53.868;11.680;2023-06-24T04:55:55;10.33;;;6.93;;
8538;SDS011;4307;53.868;11.680;2023-06-24T04:58:21;8.30;;;6.63;;
8538;SDS011;4307;53.868;11.680;2023-06-24T05:00:48;10.33;;;6.80;;
8538;SDS011;4307;53.868;11.680;2023-06-24T05:03:15;8.90;;;6.70;;
8538;SDS011;4307;53.868;11.680;2023-06-24T05:05:41;8.27;;;6.47;;
8538;SDS011;4307;53.868;11.680;2023-06-24T05:08:08;10.63;;;6.97;;
8538;SDS011;4307;53.868;11.680;2023-06-24T05:10:37;13.60;;;7.60;;
8538;SDS011;4307;53.868;11.680;2023-06-24T05:13:04;10.57;;;7.37;;
8538;SDS011;4307;53.868;11.680;2023-06-24T05:15:30;9.43;;;6.73;;
8538;SDS011;4307;53.868;11.680;2023-06-24T05:17:57;8.63;;;7.60;;
8538;SDS011;4307;53.868;11.680;2023-06-24T05:20:24;11.83;;;8.10;;
8538;SDS011;4307;53.868;11.680;2023-06-24T05:22:51;9.70;;;8.00;;
8538;SDS011;4307;53.868;11.680;2023-06-24T05:25:17;9.73;;;8.27;;
8538;SDS011;4307;53.868;11.680;2023-06-24T05:27:46;12.80;;;7.73;;
8538;SDS011;4307;53.868;11.680;2023-06-24T05:30:12;8.17;;;7.13;;
8538;SDS011;4307;53.868;11.680;2023-06-24T05:32:39;9.97;;;7.67;;
8538;SDS011;4307;53.868;11.680;2023-06-24T05:35:06;7.93;;;7.13;;
8538;SDS011;4307;53.868;11.680;2023-06-24T05:37:33;12.97;;;7.87;;
8538;SDS011;4307;53.868;11.680;2023-06-24T05:40:00;9.03;;;7.03;;
8538;SDS011;4307;53.868;11.680;2023-06-24T05:42:29;7.20;;;6.50;;
8538;SDS011;4307;53.868;11.680;2023-06-24T05:44:58;10.53;;;7.23;;
8538;SDS011;4307;53.868;11.680;2023-06-24T05:47:24;8.53;;;6.87;;
8538;SDS011;4307;53.868;11.680;2023-06-24T05:49:51;9.17;;;6.13;;
8538;SDS011;4307;53.868;11.680;2023-06-24T05:52:18;8.30;;;5.83;;
8538;SDS011;4307;53.868;11.680;2023-06-24T05:54:44;7.73;;;5.90;;
8538;SDS011;4307;53.868;11.680;2023-06-24T05:57:11;6.30;;;5.70;;
8538;SDS011;4307;53.868;11.680;2023-06-24T05:59:38;8.73;;;5.50;;
8538;SDS011;4307;53.868;11.680;2023-06-24T06:04:57;10.07;;;6.50;;
8538;SDS011;4307;53.868;11.680;2023-06-24T06:07:25;10.07;;;6.33;;
8538;SDS011;4307;53.868;11.680;2023-06-24T06:09:52;11.73;;;7.87;;
8538;SDS011;4307;53.868;11.680;2023-06-24T06:12:19;9.77;;;7.53;;
8538;SDS011;4307;53.868;11.680;2023-06-24T06:14:45;8.73;;;7.43;;
8538;SDS011;4307;53.868;11.680;2023-06-24T06:17:13;8.80;;;6.77;;
8538;SDS011;4307;53.868;11.680;2023-06-24T06:19:42;8.10;;;6.63;;
8538;SDS011;4307;53.868;11.680;2023-06-24T06:22:11;7.67;;;6.70;;
8538;SDS011;4307;53.868;11.680;2023-06-24T06:24:38;9.93;;;7.20;;
8538;SDS011;4307;53.868;11.680;2023-06-24T06:27:08;8.07;;;6.50;;
8538;SDS011;4307;53.868;11.680;2023-06-24T06:29:35;8.47;;;6.50;;
8538;SDS011;4307;53.868;11.680;2023-06-24T06:32:02;9.73;;;6.87;;
8538;SDS011;4307;53.868;11.680;2023-06-24T06:34:29;10.00;;;7.30;;
8538;SDS011;4307;53.868;11.680;2023-06-24T06:36:57;10.63;;;7.50;;
8538;SDS011;4307;53.868;11.680;2023-06-24T06:39:24;8.67;;;6.40;;
8538;SDS011;4307;53.868;11.680;2023-06-24T06:41:51;7.30;;;6.43;;
8538;SDS011;4307;53.868;11.680;2023-06-24T06:44:17;10.27;;;7.07;;
8538;SDS011;4307;53.868;11.680;2023-06-24T06:46:44;10.17;;;5.73;;
8538;SDS011;4307;53.868;11.680;2023-06-24T06:49:11;7.50;;;6.07;;
8538;SDS011;4307;53.868;11.680;2023-06-24T06:51:37;6.47;;;5.87;;
8538;SDS011;4307;53.868;11.680;2023-06-24T06:54:05;8.27;;;5.77;;
8538;SDS011;4307;53.868;11.680;2023-06-24T06:56:32;10.27;;;5.57;;
8538;SDS011;4307;53.868;11.680;2023-06-24T06:58:59;6.53;;;4.47;;
8538;SDS011;4307;53.868;11.680;2023-06-24T07:01:25;5.33;;;4.83;;
8538;SDS011;4307;53.868;11.680;2023-06-24T07:03:52;6.53;;;4.53;;
8538;SDS011;4307;53.868;11.680;2023-06-24T07:06:18;5.43;;;4.70;;
8538;SDS011;4307;53.868;11.680;2023-06-24T07:08:45;6.17;;;4.37;;
8538;SDS011;4307;53.868;11.680;2023-06-24T07:11:13;5.83;;;4.80;;
8538;SDS011;4307;53.868;11.680;2023-06-24T07:13:40;6.53;;;5.20;;
8538;SDS011;4307;53.868;11.680;2023-06-24T07:16:06;5.93;;;4.60;;
8538;SDS011;4307;53.868;11.680;2023-06-24T07:18:33;7.03;;;4.40;;
8538;SDS011;4307;53.868;11.680;2023-06-24T07:21:00;5.93;;;4.60;;
8538;SDS011;4307;53.868;11.680;2023-06-24T07:23:27;5.03;;;4.27;;
8538;SDS011;4307;53.868;11.680;2023-06-24T07:25:54;7.87;;;4.47;;
8538;SDS011;4307;53.868;11.680;2023-06-24T07:28:22;5.53;;;5.00;;
8538;SDS011;4307;53.868;11.680;2023-06-24T07:30:48;5.23;;;4.00;;
8538;SDS011;4307;53.868;11.680;2023-06-24T07:33:15;6.20;;;4.33;;
8538;SDS011;4307;53.868;11.680;2023-06-24T07:35:42;4.50;;;4.20;;
8538;SDS011;4307;53.868;11.680;2023-06-24T07:38:08;8.73;;;4.67;;
8538;SDS011;4307;53.868;11.680;2023-06-24T07:40:35;8.60;;;4.40;;
8538;SDS011;4307;53.868;11.680;2023-06-24T07:43:02;6.50;;;4.50;;
8538;SDS011;4307;53.868;11.680;2023-06-24T07:45:30;5.87;;;4.30;;
8538;SDS011;4307;53.868;11.680;2023-06-24T07:47:56;4.67;;;3.90;;
8538;SDS011;4307;53.868;11.680;2023-06-24T07:50:23;4.50;;;4.00;;
8538;SDS011;4307;53.868;11.680;2023-06-24T07:52:50;7.57;;;4.20;;
8538;SDS011;4307;53.868;11.680;2023-06-24T07:55:17;8.23;;;4.20;;
8538;SDS011;4307;53.868;11.680;2023-06-24T07:57:44;7.43;;;4.57;;
8538;SDS011;4307;53.868;11.680;2023-06-24T08:00:12;6.83;;;3.77;;
8538;SDS011;4307;53.868;11.680;2023-06-24T08:02:41;4.73;;;4.20;;
8538;SDS011;4307;53.868;11.680;2023-06-24T08:05:08;4.90;;;4.50;;
8538;SDS011;4307;53.868;11.680;2023-06-24T08:07:35;8.37;;;4.30;;
8538;SDS011;4307;53.868;11.680;2023-06-24T08:10:03;4.80;;;4.30;;
8538;SDS011;4307;53.868;11.680;2023-06-24T08:12:30;4.37;;;3.87;;
8538;SDS011;4307;53.868;11.680;2023-06-24T08:14:57;6.70;;;4.17;;
8538;SDS011;4307;53.868;11.680;2023-06-24T08:17:24;4.97;;;4.10;;
8538;SDS011;4307;53.868;11.680;2023-06-24T08:19:52;6.40;;;4.23;;
8538;SDS011;4307;53.868;11.680;2023-06-24T08:22:19;5.20;;;4.03;;
8538;SDS011;4307;53.868;11.680;2023-06-24T08:24:46;4.67;;;3.47;;
8538;SDS011;4307;53.868;11.680;2023-06-24T08:27:12;4.13;;;3.50;;
8538;SDS011;4307;53.868;11.680;2023-06-24T08:29:39;5.70;;;4.00;;
8538;SDS011;4307;53.868;11.680;2023-06-24T08:32:06;5.57;;;4.13;;
8538;SDS011;4307;53.868;11.680;2023-06-24T08:34:33;5.13;;;4.63;;
8538;SDS011;4307;53.868;11.680;2023-06-24T08:37:01;5.53;;;4.10;;
8538;SDS011;4307;53.868;11.680;2023-06-24T08:39:28;5.17;;;4.13;;
8538;SDS011;4307;53.868;11.680;2023-06-24T08:41:55;4.93;;;4.03;;
8538;SDS011;4307;53.868;11.680;2023-06-24T08:44:22;4.47;;;4.00;;
8538;SDS011;4307;53.868;11.680;2023-06-24T08:46:48;4.73;;;4.33;;
8538;SDS011;4307;53.868;11.680;2023-06-24T08:49:17;7.73;;;4.70;;
8538;SDS011;4307;53.868;11.680;2023-06-24T08:51:54;5.87;;;4.27;;
8538;SDS011;4307;53.868;11.680;2023-06-24T08:54:28;4.60;;;4.20;;
8538;SDS011;4307;53.868;11.680;2023-06-24T08:56:56;6.83;;;4.43;;
8538;SDS011;4307;53.868;11.680;2023-06-24T08:59:23;7.37;;;4.30;;
8538;SDS011;4307;53.868;11.680;2023-06-24T09:01:50;4.97;;;4.00;;
8538;SDS011;4307;53.868;11.680;2023-06-24T09:04:16;5.40;;;4.20;;
8538;SDS011;4307;53.868;11.680;2023-06-24T09:06:43;4.50;;;3.80;;
8538;SDS011;4307;53.868;11.680;2023-06-24T09:09:17;5.40;;;3.83;;
8538;SDS011;4307;53.868;11.680;2023-06-24T09:11:52;5.20;;;4.20;;
8538;SDS011;4307;53.868;11.680;2023-06-24T09:14:19;6.30;;;3.90;;
8538;SDS011;4307;53.868;11.680;2023-06-24T09:16:51;5.53;;;4.30;;
8538;SDS011;4307;53.868;11.680;2023-06-24T09:19:21;3.80;;;3.50;;
8538;SDS011;4307;53.868;11.680;2023-06-24T09:21:48;5.13;;;3.80;;
8538;SDS011;4307;53.868;11.680;2023-06-24T09:24:16;4.13;;;3.73;;
8538;SDS011;4307;53.868;11.680;2023-06-24T09:26:43;4.57;;;3.90;;
8538;SDS011;4307;53.868;11.680;2023-06-24T09:29:12;5.93;;;3.50;;
8538;SDS011;4307;53.868;11.680;2023-06-24T09:31:47;5.43;;;3.83;;
8538;SDS011;4307;53.868;11.680;2023-06-24T09:34:14;5.10;;;3.43;;
8538;SDS011;4307;53.868;11.680;2023-06-24T09:36:42;4.50;;;3.60;;
8538;SDS011;4307;53.868;11.680;2023-06-24T09:39:09;4.10;;;3.30;;
8538;SDS011;4307;53.868;11.680;2023-06-24T09:41:39;4.53;;;3.63;;
8538;SDS011;4307;53.868;11.680;2023-06-24T09:44:07;3.47;;;3.07;;
8538;SDS011;4307;53.868;11.680;2023-06-24T09:46:36;3.27;;;3.03;;
8538;SDS011;4307;53.868;11.680;2023-06-24T09:49:03;3.70;;;3.40;;
8538;SDS011;4307;53.868;11.680;2023-06-24T09:51:31;4.07;;;3.67;;
8538;SDS011;4307;53.868;11.680;2023-06-24T09:54:01;3.70;;;3.30;;
8538;SDS011;4307;53.868;11.680;2023-06-24T09:56:29;3.70;;;3.40;;
8538;SDS011;4307;53.868;11.680;2023-06-24T09:58:56;6.27;;;3.40;;
8538;SDS011;4307;53.868;11.680;2023-06-24T10:01:24;3.50;;;3.20;;
8538;SDS011;4307;53.868;11.680;2023-06-24T10:03:52;5.40;;;2.97;;
8538;SDS011;4307;53.868;11.680;2023-06-24T10:06:20;3.37;;;3.07;;
8538;SDS011;4307;53.868;11.680;2023-06-24T10:08:46;4.73;;;2.90;;
8538;SDS011;4307;53.868;11.680;2023-06-24T10:11:13;3.20;;;3.00;;
8538;SDS011;4307;53.868;11.680;2023-06-24T10:13:40;3.60;;;2.87;;
8538;SDS011;4307;53.868;11.680;2023-06-24T10:16:06;3.03;;;2.83;;
8538;SDS011;4307;53.868;11.680;2023-06-24T10:18:34;3.47;;;3.17;;
8538;SDS011;4307;53.868;11.680;2023-06-24T10:21:03;2.77;;;2.57;;
8538;SDS011;4307;53.868;11.680;2023-06-24T10:23:31;2.83;;;2.63;;
8538;SDS011;4307;53.868;11.680;2023-06-24T10:25:59;3.63;;;2.80;;
8538;SDS011;4307;53.868;11.680;2023-06-24T10:28:26;3.77;;;2.80;;
8538;SDS011;4307;53.868;11.680;2023-06-24T10:30:56;2.87;;;2.57;;
8538;SDS011;4307;53.868;11.680;2023-06-24T10:33:23;2.67;;;2.17;;
8538;SDS011;4307;53.868;11.680;2023-06-24T10:35:50;2.93;;;2.73;;
8538;SDS011;4307;53.868;11.680;2023-06-24T10:38:19;4.63;;;2.97;;
8538;SDS011;4307;53.868;11.680;2023-06-24T10:40:46;3.13;;;2.70;;
8538;SDS011;4307;53.868;11.680;2023-06-24T10:43:28;3.10;;;2.90;;
8538;SDS011;4307;53.868;11.680;2023-06-24T10:45:56;3.43;;;3.13;;
8538;SDS011;4307;53.868;11.680;2023-06-24T10:48:23;7.10;;;3.37;;
8538;SDS011;4307;53.868;11.680;2023-06-24T10:50:50;3.70;;;3.37;;
8538;SDS011;4307;53.868;11.680;2023-06-24T10:53:19;3.73;;;3.43;;
8538;SDS011;4307;53.868;11.680;2023-06-24T10:55:47;3.07;;;2.87;;
8538;SDS011;4307;53.868;11.680;2023-06-24T10:58:14;3.70;;;3.10;;
8538;SDS011;4307;53.868;11.680;2023-06-24T11:00:41;4.10;;;3.00;;
8538;SDS011;4307;53.868;11.680;2023-06-24T11:03:11;4.70;;;3.70;;
8538;SDS011;4307;53.868;11.680;2023-06-24T11:05:39;3.57;;;3.27;;
8538;SDS011;4307;53.868;11.680;2023-06-24T11:08:06;6.50;;;3.70;;
8538;SDS011;4307;53.868;11.680;2023-06-24T11:10:34;4.33;;;3.37;;
8538;SDS011;4307;53.868;11.680;2023-06-24T11:13:08;3.97;;;3.67;;
8538;SDS011;4307;53.868;11.680;2023-06-24T11:15:35;3.70;;;3.40;;
8538;SDS011;4307;53.868;11.680;2023-06-24T11:18:02;3.60;;;3.30;;
8538;SDS011;4307;53.868;11.680;2023-06-24T11:20:29;5.17;;;3.43;;
8538;SDS011;4307;53.868;11.680;2023-06-24T11:22:56;6.83;;;3.40;;
8538;SDS011;4307;53.868;11.680;2023-06-24T11:25:23;3.27;;;2.97;;
8538;SDS011;4307;53.868;11.680;2023-06-24T11:27:51;3.13;;;2.80;;
8538;SDS011;4307;53.868;11.680;2023-06-24T11:30:18;3.87;;;2.60;;
8538;SDS011;4307;53.868;11.680;2023-06-24T11:32:45;5.07;;;3.03;;
8538;SDS011;4307;53.868;11.680;2023-06-24T11:35:13;5.83;;;3.03;;
8538;SDS011;4307;53.868;11.680;2023-06-24T11:37:41;3.40;;;2.70;;
8538;SDS011;4307;53.868;11.680;2023-06-24T11:40:09;3.27;;;2.97;;
8538;SDS011;4307;53.868;11.680;2023-06-24T11:42:36;2.97;;;2.73;;
8538;SDS011;4307;53.868;11.680;2023-06-24T11:45:06;3.30;;;3.00;;
8538;SDS011;4307;53.868;11.680;2023-06-24T11:47:35;2.87;;;2.50;;
8538;SDS011;4307;53.868;11.680;2023-06-24T11:50:04;3.03;;;2.50;;
8538;SDS011;4307;53.868;11.680;2023-06-24T11:52:33;2.27;;;2.07;;
8538;SDS011;4307;53.868;11.680;2023-06-24T11:55:10;2.70;;;2.50;;
8538;SDS011;4307;53.868;11.680;2023-06-24T11:57:51;2.93;;;2.67;;
8538;SDS011;4307;53.868;11.680;2023-06-24T12:00:21;3.00;;;2.70;;
8538;SDS011;4307;53.868;11.680;2023-06-24T12:02:49;3.77;;;2.50;;
8538;SDS011;4307;53.868;11.680;2023-06-24T12:05:19;3.47;;;2.40;;
8538;SDS011;4307;53.868;11.680;2023-06-24T12:07:51;2.40;;;2.23;;
8538;SDS011;4307;53.868;11.680;2023-06-24T12:10:21;2.80;;;2.50;;
8538;SDS011;4307;53.868;11.680;2023-06-24T12:12:47;2.83;;;2.63;;
8538;SDS011;4307;53.868;11.680;2023-06-24T12:15:14;4.37;;;2.50;;
8538;SDS011;4307;53.868;11.680;2023-06-24T12:17:42;3.10;;;2.80;;
8538;SDS011;4307;53.868;11.680;2023-06-24T12:20:09;3.67;;;2.60;;
8538;SDS011;4307;53.868;11.680;2023-06-24T12:22:36;2.90;;;2.70;;
8538;SDS011;4307;53.868;11.680;2023-06-24T12:25:03;3.70;;;2.47;;
8538;SDS011;4307;53.868;11.680;2023-06-24T12:27:30;5.43;;;2.97;;
8538;SDS011;4307;53.868;11.680;2023-06-24T12:29:57;3.90;;;3.07;;
8538;SDS011;4307;53.868;11.680;2023-06-24T12:32:23;3.07;;;2.87;;
8538;SDS011;4307;53.868;11.680;2023-06-24T12:34:51;3.20;;;2.90;;
8538;SDS011;4307;53.868;11.680;2023-06-24T12:37:18;4.03;;;3.30;;
8538;SDS011;4307;53.868;11.680;2023-06-24T12:39:45;3.93;;;3.23;;
8538;SDS011;4307;53.868;11.680;2023-06-24T12:42:12;5.63;;;3.00;;
8538;SDS011;4307;53.868;11.680;2023-06-24T12:44:39;5.87;;;3.50;;
8538;SDS011;4307;53.868;11.680;2023-06-24T12:47:06;5.10;;;3.37;;
8538;SDS011;4307;53.868;11.680;2023-06-24T12:49:33;3.87;;;3.40;;
8538;SDS011;4307;53.868;11.680;2023-06-24T12:52:01;3.63;;;3.33;;
8538;SDS011;4307;53.868;11.680;2023-06-24T12:54:27;3.53;;;2.60;;
8538;SDS011;4307;53.868;11.680;2023-06-24T12:56:54;3.40;;;3.10;;
8538;SDS011;4307;53.868;11.680;2023-06-24T12:59:22;3.57;;;3.27;;
8538;SDS011;4307;53.868;11.680;2023-06-24T13:01:49;6.00;;;3.30;;
8538;SDS011;4307;53.868;11.680;2023-06-24T13:04:15;3.60;;;3.30;;
8538;SDS011;4307;53.868;11.680;2023-06-24T13:06:44;3.37;;;3.07;;
8538;SDS011;4307;53.868;11.680;2023-06-24T13:09:12;3.77;;;3.40;;
8538;SDS011;4307;53.868;11.680;2023-06-24T13:11:39;4.57;;;3.37;;
8538;SDS011;4307;53.868;11.680;2023-06-24T13:14:06;3.40;;;3.20;;
8538;SDS011;4307;53.868;11.680;2023-06-24T13:16:34;4.40;;;3.17;;
8538;SDS011;4307;53.868;11.680;2023-06-24T13:19:01;3.45;;;3.15;;
8538;SDS011;4307;53.868;11.680;2023-06-24T13:21:28;5.30;;;3.43;;
8538;SDS011;4307;53.868;11.680;2023-06-24T13:23:54;3.40;;;3.10;;
8538;SDS011;4307;53.868;11.680;2023-06-24T13:26:22;3.30;;;3.00;;
8538;SDS011;4307;53.868;11.680;2023-06-24T13:28:50;4.53;;;3.63;;
8538;SDS011;4307;53.868;11.680;2023-06-24T13:31:17;3.80;;;3.50;;
8538;SDS011;4307;53.868;11.680;2023-06-24T13:33:44;4.07;;;3.47;;
8538;SDS011;4307;53.868;11.680;2023-06-24T13:36:12;4.03;;;3.73;;
8538;SDS011;4307;53.868;11.680;2023-06-24T13:38:54;4.03;;;3.37;;
8538;SDS011;4307;53.868;11.680;2023-06-24T13:41:22;4.30;;;3.90;;
8538;SDS011;4307;53.868;11.680;2023-06-24T13:43:51;5.07;;;3.63;;
8538;SDS011;4307;53.868;11.680;2023-06-24T13:46:17;4.63;;;3.63;;
8538;SDS011;4307;53.868;11.680;2023-06-24T13:48:44;4.87;;;3.70;;
8538;SDS011;4307;53.868;11.680;2023-06-24T13:51:10;3.87;;;3.57;;
8538;SDS011;4307;53.868;11.680;2023-06-24T13:53:37;4.47;;;3.77;;
8538;SDS011;4307;53.868;11.680;2023-06-24T13:56:04;4.63;;;4.03;;
8538;SDS011;4307;53.868;11.680;2023-06-24T13:58:32;4.10;;;3.70;;
8538;SDS011;4307;53.868;11.680;2023-06-24T14:00:58;4.30;;;3.80;;
8538;SDS011;4307;53.868;11.680;2023-06-24T14:03:25;3.93;;;3.60;;
8538;SDS011;4307;53.868;11.680;2023-06-24T14:05:52;4.83;;;3.90;;
8538;SDS011;4307;53.868;11.680;2023-06-24T14:08:19;4.13;;;3.70;;
8538;SDS011;4307;53.868;11.680;2023-06-24T14:10:45;3.80;;;3.50;;
8538;SDS011;4307;53.868;11.680;2023-06-24T14:13:12;4.20;;;3.80;;
8538;SDS011;4307;53.868;11.680;2023-06-24T14:15:40;4.20;;;3.80;;
8538;SDS011;4307;53.868;11.680;2023-06-24T14:18:07;5.63;;;3.70;;
8538;SDS011;4307;53.868;11.680;2023-06-24T14:20:33;5.50;;;3.70;;
8538;SDS011;4307;53.868;11.680;2023-06-24T14:23:00;4.63;;;4.20;;
8538;SDS011;4307;53.868;11.680;2023-06-24T14:25:27;3.90;;;3.60;;
8538;SDS011;4307;53.868;11.680;2023-06-24T14:27:53;5.63;;;3.93;;
8538;SDS011;4307;53.868;11.680;2023-06-24T14:30:20;4.67;;;4.17;;
8538;SDS011;4307;53.868;11.680;2023-06-24T14:32:48;5.37;;;4.27;;
8538;SDS011;4307;53.868;11.680;2023-06-24T14:35:15;5.00;;;4.17;;
8538;SDS011;4307;53.868;11.680;2023-06-24T14:37:42;5.43;;;3.77;;
8538;SDS011;4307;53.868;11.680;2023-06-24T14:40:08;6.30;;;4.00;;
8538;SDS011;4307;53.868;11.680;2023-06-24T14:42:35;7.03;;;3.87;;
8538;SDS011;4307;53.868;11.680;2023-06-24T14:45:02;4.07;;;3.67;;
8538;SDS011;4307;53.868;11.680;2023-06-24T14:47:29;5.23;;;3.83;;
8538;SDS011;4307;53.868;11.680;2023-06-24T14:49:57;4.90;;;4.30;;
8538;SDS011;4307;53.868;11.680;2023-06-24T14:52:24;4.57;;;4.17;;
8538;SDS011;4307;53.868;11.680;2023-06-24T14:54:50;4.03;;;3.53;;
8538;SDS011;4307;53.868;11.680;2023-06-24T14:57:17;4.83;;;3.63;;
8538;SDS011;4307;53.868;11.680;2023-06-24T14:59:44;6.33;;;3.90;;
8538;SDS011;4307;53.868;11.680;2023-06-24T15:02:11;4.93;;;3.93;;
8538;SDS011;4307;53.868;11.680;2023-06-24T15:04:38;5.33;;;3.60;;
8538;SDS011;4307;53.868;11.680;2023-06-24T15:07:07;4.37;;;3.80;;